sensor_id;sensor_type;location;lat;lon;timestamp;P1;durP1;ratioP1;P2;durP2;ratioP2
8544;SDS011;4310;51.054;6.994;2022-12-18T00:00:53;29.60;;;26.82;;
8544;SDS011;4310;51.054;6.994;2022-12-18T00:01:57;29.63;;;27.02;;
8544;SDS011;4310;51.054;6.994;2022-12-18T00:03:01;30.27;;;27.52;;
8544;SDS011;4310;51.054;6.994;2022-12-18T00:04:05;30.70;;;28.23;;
8544;SDS011;4310;51.054;6.994;2022-12-18T00:06:28;31.57;;;28.87;;
8544;SDS011;4310;51.054;6.994;2022-12-18T00:07:32;29.75;;;27.25;;
8544;SDS011;4310;51.054;6.994;2022-12-18T00:08:35;29.07;;;26.55;;
8544;SDS011;4310;51.054;6.994;2022-12-18T00:09:39;29.50;;;26.90;;
8544;SDS011;4310;51.054;6.994;2022-12-18T00:10:43;28.75;;;26.25;;
8544;SDS011;4310;51.054;6.994;2022-12-18T00:11:46;27.65;;;25.15;;
8544;SDS011;4310;51.054;6.994;2022-12-18T00:12:50;30.10;;;27.45;;
8544;SDS011;4310;51.054;6.994;2022-12-18T00:13:55;28.27;;;25.92;;
8544;SDS011;4310;51.054;6.994;2022-12-18T00:16:12;23.98;;;21.87;;
8544;SDS011;4310;51.054;6.994;2022-12-18T00:17:16;24.57;;;22.27;;
8544;SDS011;4310;51.054;6.994;2022-12-18T00:18:19;21.12;;;19.10;;
8544;SDS011;4310;51.054;6.994;2022-12-18T00:19:23;20.08;;;18.17;;
8544;SDS011;4310;51.054;6.994;2022-12-18T00:20:27;22.00;;;20.00;;
8544;SDS011;4310;51.054;6.994;2022-12-18T00:21:31;22.37;;;20.30;;
8544;SDS011;4310;51.054;6.994;2022-12-18T00:23:47;22.05;;;19.95;;
8544;SDS011;4310;51.054;6.994;2022-12-18T00:24:51;20.97;;;18.98;;
8544;SDS011;4310;51.054;6.994;2022-12-18T00:27:06;21.65;;;19.55;;
8544;SDS011;4310;51.054;6.994;2022-12-18T00:29:22;22.07;;;19.87;;
8544;SDS011;4310;51.054;6.994;2022-12-18T00:30:26;21.68;;;19.62;;
8544;SDS011;4310;51.054;6.994;2022-12-18T00:31:30;21.23;;;19.12;;
8544;SDS011;4310;51.054;6.994;2022-12-18T00:32:33;21.35;;;19.32;;
8544;SDS011;4310;51.054;6.994;2022-12-18T00:33:37;21.23;;;19.12;;
8544;SDS011;4310;51.054;6.994;2022-12-18T00:34:41;21.27;;;19.12;;
8544;SDS011;4310;51.054;6.994;2022-12-18T00:35:44;19.17;;;17.23;;
8544;SDS011;4310;51.054;6.994;2022-12-18T00:36:48;19.00;;;17.10;;
8544;SDS011;4310;51.054;6.994;2022-12-18T00:37:52;18.57;;;16.67;;
8544;SDS011;4310;51.054;6.994;2022-12-18T00:38:56;18.65;;;16.80;;
8544;SDS011;4310;51.054;6.994;2022-12-18T00:40:00;18.15;;;16.30;;
8544;SDS011;4310;51.054;6.994;2022-12-18T00:41:04;17.77;;;15.95;;
8544;SDS011;4310;51.054;6.994;2022-12-18T00:42:08;17.02;;;15.23;;
8544;SDS011;4310;51.054;6.994;2022-12-18T00:43:31;16.97;;;15.18;;
8544;SDS011;4310;51.054;6.994;2022-12-18T00:45:46;18.42;;;15.98;;
8544;SDS011;4310;51.054;6.994;2022-12-18T00:46:50;17.48;;;15.75;;
8544;SDS011;4310;51.054;6.994;2022-12-18T00:47:53;16.40;;;14.65;;
8544;SDS011;4310;51.054;6.994;2022-12-18T00:48:57;18.00;;;15.53;;
8544;SDS011;4310;51.054;6.994;2022-12-18T00:50:01;17.32;;;15.53;;
8544;SDS011;4310;51.054;6.994;2022-12-18T00:51:05;17.53;;;15.77;;
8544;SDS011;4310;51.054;6.994;2022-12-18T00:52:11;18.52;;;16.60;;
8544;SDS011;4310;51.054;6.994;2022-12-18T00:53:14;17.10;;;15.30;;
8544;SDS011;4310;51.054;6.994;2022-12-18T00:54:18;17.55;;;15.78;;
8544;SDS011;4310;51.054;6.994;2022-12-18T00:55:22;16.77;;;15.07;;
8544;SDS011;4310;51.054;6.994;2022-12-18T00:56:26;16.70;;;15.08;;
8544;SDS011;4310;51.054;6.994;2022-12-18T00:57:30;17.23;;;14.83;;
8544;SDS011;4310;51.054;6.994;2022-12-18T00:58:33;16.25;;;14.65;;
8544;SDS011;4310;51.054;6.994;2022-12-18T00:59:37;17.02;;;15.23;;
8544;SDS011;4310;51.054;6.994;2022-12-18T01:00:41;16.07;;;14.40;;
8544;SDS011;4310;51.054;6.994;2022-12-18T01:01:45;15.47;;;13.87;;
8544;SDS011;4310;51.054;6.994;2022-12-18T01:02:49;16.10;;;14.40;;
8544;SDS011;4310;51.054;6.994;2022-12-18T01:03:52;17.37;;;14.70;;
8544;SDS011;4310;51.054;6.994;2022-12-18T01:04:56;17.45;;;14.20;;
8544;SDS011;4310;51.054;6.994;2022-12-18T01:06:04;15.78;;;14.20;;
8544;SDS011;4310;51.054;6.994;2022-12-18T01:07:05;16.27;;;14.58;;
8544;SDS011;4310;51.054;6.994;2022-12-18T01:09:20;16.60;;;14.67;;
8544;SDS011;4310;51.054;6.994;2022-12-18T01:10:24;16.85;;;14.80;;
8544;SDS011;4310;51.054;6.994;2022-12-18T01:11:28;17.30;;;15.45;;
8544;SDS011;4310;51.054;6.994;2022-12-18T01:12:32;16.32;;;14.63;;
8544;SDS011;4310;51.054;6.994;2022-12-18T01:13:36;15.72;;;13.88;;
8544;SDS011;4310;51.054;6.994;2022-12-18T01:15:51;16.10;;;14.30;;
8544;SDS011;4310;51.054;6.994;2022-12-18T01:16:55;15.70;;;14.10;;
8544;SDS011;4310;51.054;6.994;2022-12-18T01:17:59;16.00;;;14.35;;
8544;SDS011;4310;51.054;6.994;2022-12-18T01:19:02;16.17;;;14.47;;
8544;SDS011;4310;51.054;6.994;2022-12-18T01:20:07;16.30;;;14.18;;
8544;SDS011;4310;51.054;6.994;2022-12-18T01:21:12;16.42;;;14.73;;
8544;SDS011;4310;51.054;6.994;2022-12-18T01:22:16;16.48;;;14.35;;
8544;SDS011;4310;51.054;6.994;2022-12-18T01:23:20;15.72;;;13.83;;
8544;SDS011;4310;51.054;6.994;2022-12-18T01:24:24;16.75;;;14.70;;
8544;SDS011;4310;51.054;6.994;2022-12-18T01:25:27;16.82;;;15.08;;
8544;SDS011;4310;51.054;6.994;2022-12-18T01:26:31;15.85;;;14.15;;
8544;SDS011;4310;51.054;6.994;2022-12-18T01:27:35;16.17;;;14.58;;
8544;SDS011;4310;51.054;6.994;2022-12-18T01:28:39;17.10;;;15.32;;
8544;SDS011;4310;51.054;6.994;2022-12-18T01:29:43;16.82;;;15.13;;
8544;SDS011;4310;51.054;6.994;2022-12-18T01:30:46;16.90;;;15.10;;
8544;SDS011;4310;51.054;6.994;2022-12-18T01:33:02;16.42;;;14.73;;
8544;SDS011;4310;51.054;6.994;2022-12-18T01:34:07;15.28;;;13.68;;
8544;SDS011;4310;51.054;6.994;2022-12-18T01:35:10;17.00;;;14.28;;
8544;SDS011;4310;51.054;6.994;2022-12-18T01:36:15;17.23;;;15.53;;
8544;SDS011;4310;51.054;6.994;2022-12-18T01:37:19;16.85;;;14.80;;
8544;SDS011;4310;51.054;6.994;2022-12-18T01:38:22;16.90;;;15.15;;
8544;SDS011;4310;51.054;6.994;2022-12-18T01:39:26;16.82;;;15.23;;
8544;SDS011;4310;51.054;6.994;2022-12-18T01:40:30;17.40;;;15.28;;
8544;SDS011;4310;51.054;6.994;2022-12-18T01:41:34;16.62;;;14.93;;
8544;SDS011;4310;51.054;6.994;2022-12-18T01:42:57;16.82;;;15.08;;
8544;SDS011;4310;51.054;6.994;2022-12-18T01:45:23;17.62;;;15.83;;
8544;SDS011;4310;51.054;6.994;2022-12-18T01:46:27;18.60;;;16.90;;
8544;SDS011;4310;51.054;6.994;2022-12-18T01:47:33;19.02;;;17.23;;
8544;SDS011;4310;51.054;6.994;2022-12-18T01:48:37;19.00;;;17.10;;
8544;SDS011;4310;51.054;6.994;2022-12-18T01:49:41;18.75;;;16.85;;
8544;SDS011;4310;51.054;6.994;2022-12-18T01:50:45;19.92;;;17.92;;
8544;SDS011;4310;51.054;6.994;2022-12-18T01:51:49;19.27;;;17.48;;
8544;SDS011;4310;51.054;6.994;2022-12-18T01:52:53;18.92;;;17.05;;
8544;SDS011;4310;51.054;6.994;2022-12-18T01:53:57;17.90;;;16.20;;
8544;SDS011;4310;51.054;6.994;2022-12-18T01:55:03;18.57;;;16.77;;
8544;SDS011;4310;51.054;6.994;2022-12-18T01:56:07;17.48;;;15.68;;
8544;SDS011;4310;51.054;6.994;2022-12-18T01:57:12;17.80;;;16.07;;
8544;SDS011;4310;51.054;6.994;2022-12-18T01:58:15;17.92;;;16.15;;
8544;SDS011;4310;51.054;6.994;2022-12-18T01:59:19;16.95;;;15.35;;
8544;SDS011;4310;51.054;6.994;2022-12-18T02:01:35;17.57;;;15.55;;
8544;SDS011;4310;51.054;6.994;2022-12-18T02:02:40;18.27;;;16.48;;
8544;SDS011;4310;51.054;6.994;2022-12-18T02:03:44;16.70;;;14.97;;
8544;SDS011;4310;51.054;6.994;2022-12-18T02:04:48;18.32;;;16.42;;
8544;SDS011;4310;51.054;6.994;2022-12-18T02:05:53;18.17;;;16.37;;
8544;SDS011;4310;51.054;6.994;2022-12-18T02:06:59;18.45;;;15.95;;
8544;SDS011;4310;51.054;6.994;2022-12-18T02:08:05;17.92;;;16.02;;
8544;SDS011;4310;51.054;6.994;2022-12-18T02:10:22;18.35;;;16.55;;
8544;SDS011;4310;51.054;6.994;2022-12-18T02:11:29;19.00;;;17.10;;
8544;SDS011;4310;51.054;6.994;2022-12-18T02:12:34;19.60;;;17.77;;
8544;SDS011;4310;51.054;6.994;2022-12-18T02:13:41;20.20;;;18.30;;
8544;SDS011;4310;51.054;6.994;2022-12-18T02:14:47;21.33;;;19.40;;
8544;SDS011;4310;51.054;6.994;2022-12-18T02:15:54;21.12;;;19.30;;
8544;SDS011;4310;51.054;6.994;2022-12-18T02:16:58;22.45;;;20.48;;
8544;SDS011;4310;51.054;6.994;2022-12-18T02:18:03;22.65;;;20.65;;
8544;SDS011;4310;51.054;6.994;2022-12-18T02:19:08;22.48;;;20.55;;
8544;SDS011;4310;51.054;6.994;2022-12-18T02:20:13;20.85;;;18.85;;
8544;SDS011;4310;51.054;6.994;2022-12-18T02:21:20;21.17;;;19.20;;
8544;SDS011;4310;51.054;6.994;2022-12-18T02:22:26;22.93;;;20.82;;
8544;SDS011;4310;51.054;6.994;2022-12-18T02:24:51;23.32;;;21.27;;
8544;SDS011;4310;51.054;6.994;2022-12-18T02:26:00;24.92;;;22.82;;
8544;SDS011;4310;51.054;6.994;2022-12-18T02:27:06;23.35;;;21.35;;
8544;SDS011;4310;51.054;6.994;2022-12-18T02:28:11;22.70;;;20.70;;
8544;SDS011;4310;51.054;6.994;2022-12-18T02:29:16;22.05;;;20.15;;
8544;SDS011;4310;51.054;6.994;2022-12-18T02:30:20;21.42;;;19.50;;
8544;SDS011;4310;51.054;6.994;2022-12-18T02:31:25;20.62;;;18.70;;
8544;SDS011;4310;51.054;6.994;2022-12-18T02:32:30;19.75;;;17.95;;
8544;SDS011;4310;51.054;6.994;2022-12-18T02:34:47;19.07;;;17.20;;
8544;SDS011;4310;51.054;6.994;2022-12-18T02:35:51;18.60;;;16.90;;
8544;SDS011;4310;51.054;6.994;2022-12-18T02:36:57;19.67;;;17.57;;
8544;SDS011;4310;51.054;6.994;2022-12-18T02:38:02;18.67;;;16.85;;
8544;SDS011;4310;51.054;6.994;2022-12-18T02:39:07;19.23;;;17.52;;
8544;SDS011;4310;51.054;6.994;2022-12-18T02:40:12;20.52;;;18.65;;
8544;SDS011;4310;51.054;6.994;2022-12-18T02:41:16;19.25;;;17.27;;
8544;SDS011;4310;51.054;6.994;2022-12-18T02:42:20;19.25;;;17.40;;
8544;SDS011;4310;51.054;6.994;2022-12-18T02:43:23;17.27;;;15.65;;
8544;SDS011;4310;51.054;6.994;2022-12-18T02:44:27;17.73;;;15.98;;
8544;SDS011;4310;51.054;6.994;2022-12-18T02:45:31;17.60;;;15.80;;
8544;SDS011;4310;51.054;6.994;2022-12-18T02:47:47;17.82;;;16.10;;
8544;SDS011;4310;51.054;6.994;2022-12-18T02:48:51;18.98;;;17.17;;
8544;SDS011;4310;51.054;6.994;2022-12-18T02:49:59;18.02;;;16.42;;
8544;SDS011;4310;51.054;6.994;2022-12-18T02:51:03;17.75;;;16.05;;
8544;SDS011;4310;51.054;6.994;2022-12-18T02:52:10;18.10;;;16.50;;
8544;SDS011;4310;51.054;6.994;2022-12-18T02:53:16;18.37;;;16.57;;
8544;SDS011;4310;51.054;6.994;2022-12-18T02:55:56;19.30;;;17.52;;
8544;SDS011;4310;51.054;6.994;2022-12-18T02:57:02;20.20;;;18.30;;
8544;SDS011;4310;51.054;6.994;2022-12-18T02:58:08;20.37;;;18.50;;
8544;SDS011;4310;51.054;6.994;2022-12-18T02:59:12;19.90;;;18.10;;
8544;SDS011;4310;51.054;6.994;2022-12-18T03:00:17;21.75;;;19.75;;
8544;SDS011;4310;51.054;6.994;2022-12-18T03:01:24;22.00;;;20.00;;
8544;SDS011;4310;51.054;6.994;2022-12-18T03:03:39;21.70;;;19.80;;
8544;SDS011;4310;51.054;6.994;2022-12-18T03:04:45;21.27;;;19.48;;
8544;SDS011;4310;51.054;6.994;2022-12-18T03:05:51;21.30;;;19.37;;
8544;SDS011;4310;51.054;6.994;2022-12-18T03:06:56;21.60;;;19.62;;
8544;SDS011;4310;51.054;6.994;2022-12-18T03:08:02;22.20;;;20.17;;
8544;SDS011;4310;51.054;6.994;2022-12-18T03:09:07;22.40;;;20.50;;
8544;SDS011;4310;51.054;6.994;2022-12-18T03:10:13;22.60;;;20.65;;
8544;SDS011;4310;51.054;6.994;2022-12-18T03:11:17;23.18;;;21.12;;
8544;SDS011;4310;51.054;6.994;2022-12-18T03:12:24;22.67;;;20.70;;
8544;SDS011;4310;51.054;6.994;2022-12-18T03:14:44;24.07;;;21.97;;
8544;SDS011;4310;51.054;6.994;2022-12-18T03:15:50;22.50;;;20.60;;
8544;SDS011;4310;51.054;6.994;2022-12-18T03:16:56;22.17;;;20.17;;
8544;SDS011;4310;51.054;6.994;2022-12-18T03:18:02;24.40;;;22.40;;
8544;SDS011;4310;51.054;6.994;2022-12-18T03:19:06;26.15;;;24.15;;
8544;SDS011;4310;51.054;6.994;2022-12-18T03:20:12;33.00;;;30.40;;
8544;SDS011;4310;51.054;6.994;2022-12-18T03:21:19;26.45;;;24.27;;
8544;SDS011;4310;51.054;6.994;2022-12-18T03:22:22;26.48;;;24.25;;
8544;SDS011;4310;51.054;6.994;2022-12-18T03:23:29;26.35;;;24.10;;
8544;SDS011;4310;51.054;6.994;2022-12-18T03:24:33;29.32;;;27.02;;
8544;SDS011;4310;51.054;6.994;2022-12-18T03:25:38;29.85;;;27.50;;
8544;SDS011;4310;51.054;6.994;2022-12-18T03:26:43;32.33;;;29.92;;
8544;SDS011;4310;51.054;6.994;2022-12-18T03:29:00;35.58;;;32.98;;
8544;SDS011;4310;51.054;6.994;2022-12-18T03:30:07;35.48;;;32.88;;
8544;SDS011;4310;51.054;6.994;2022-12-18T03:31:12;36.87;;;34.20;;
8544;SDS011;4310;51.054;6.994;2022-12-18T03:32:19;39.15;;;36.28;;
8544;SDS011;4310;51.054;6.994;2022-12-18T03:33:23;41.80;;;38.98;;
8544;SDS011;4310;51.054;6.994;2022-12-18T03:34:28;41.80;;;38.90;;
8544;SDS011;4310;51.054;6.994;2022-12-18T03:35:33;45.35;;;42.25;;
8544;SDS011;4310;51.054;6.994;2022-12-18T03:36:38;45.52;;;42.23;;
8544;SDS011;4310;51.054;6.994;2022-12-18T03:37:42;44.15;;;41.05;;
8544;SDS011;4310;51.054;6.994;2022-12-18T03:38:45;42.98;;;40.05;;
8544;SDS011;4310;51.054;6.994;2022-12-18T03:39:49;40.85;;;37.90;;
8544;SDS011;4310;51.054;6.994;2022-12-18T03:40:56;40.15;;;37.35;;
8544;SDS011;4310;51.054;6.994;2022-12-18T03:42:00;38.33;;;35.63;;
8544;SDS011;4310;51.054;6.994;2022-12-18T03:43:06;37.33;;;34.67;;
8544;SDS011;4310;51.054;6.994;2022-12-18T03:44:11;34.73;;;32.10;;
8544;SDS011;4310;51.054;6.994;2022-12-18T03:45:18;34.03;;;31.50;;
8544;SDS011;4310;51.054;6.994;2022-12-18T03:47:38;36.33;;;33.55;;
8544;SDS011;4310;51.054;6.994;2022-12-18T03:48:42;37.93;;;35.23;;
8544;SDS011;4310;51.054;6.994;2022-12-18T03:49:48;47.08;;;43.98;;
8544;SDS011;4310;51.054;6.994;2022-12-18T03:50:55;37.70;;;35.00;;
8544;SDS011;4310;51.054;6.994;2022-12-18T03:51:59;40.83;;;38.10;;
8544;SDS011;4310;51.054;6.994;2022-12-18T03:54:16;43.05;;;40.15;;
8544;SDS011;4310;51.054;6.994;2022-12-18T03:55:21;42.25;;;39.33;;
8544;SDS011;4310;51.054;6.994;2022-12-18T03:56:26;45.85;;;42.85;;
8544;SDS011;4310;51.054;6.994;2022-12-18T03:57:31;41.88;;;38.95;;
8544;SDS011;4310;51.054;6.994;2022-12-18T03:58:35;41.90;;;39.08;;
8544;SDS011;4310;51.054;6.994;2022-12-18T03:59:40;40.85;;;38.05;;
8544;SDS011;4310;51.054;6.994;2022-12-18T04:00:44;39.80;;;36.80;;
8544;SDS011;4310;51.054;6.994;2022-12-18T04:01:49;39.08;;;36.35;;
8544;SDS011;4310;51.054;6.994;2022-12-18T04:02:54;37.45;;;34.65;;
8544;SDS011;4310;51.054;6.994;2022-12-18T04:03:58;39.25;;;36.48;;
8544;SDS011;4310;51.054;6.994;2022-12-18T04:05:04;41.80;;;38.80;;
8544;SDS011;4310;51.054;6.994;2022-12-18T04:06:08;38.58;;;35.85;;
8544;SDS011;4310;51.054;6.994;2022-12-18T04:07:13;41.63;;;38.70;;
8544;SDS011;4310;51.054;6.994;2022-12-18T04:08:16;40.78;;;38.00;;
8544;SDS011;4310;51.054;6.994;2022-12-18T04:10:32;48.52;;;45.35;;
8544;SDS011;4310;51.054;6.994;2022-12-18T04:11:35;51.92;;;48.60;;
8544;SDS011;4310;51.054;6.994;2022-12-18T04:12:39;55.00;;;51.35;;
8544;SDS011;4310;51.054;6.994;2022-12-18T04:14:54;55.03;;;51.50;;
8544;SDS011;4310;51.054;6.994;2022-12-18T04:15:58;53.17;;;49.65;;
8544;SDS011;4310;51.054;6.994;2022-12-18T04:17:02;53.35;;;49.95;;
8544;SDS011;4310;51.054;6.994;2022-12-18T04:18:05;55.48;;;51.77;;
8544;SDS011;4310;51.054;6.994;2022-12-18T04:19:09;57.33;;;53.63;;
8544;SDS011;4310;51.054;6.994;2022-12-18T04:20:13;57.40;;;53.80;;
8544;SDS011;4310;51.054;6.994;2022-12-18T04:21:16;59.15;;;55.28;;
8544;SDS011;4310;51.054;6.994;2022-12-18T04:22:20;56.30;;;52.70;;
8544;SDS011;4310;51.054;6.994;2022-12-18T04:24:35;56.48;;;52.83;;
8544;SDS011;4310;51.054;6.994;2022-12-18T04:25:39;64.62;;;60.52;;
8544;SDS011;4310;51.054;6.994;2022-12-18T04:26:43;56.83;;;53.00;;
8544;SDS011;4310;51.054;6.994;2022-12-18T04:27:46;55.23;;;51.63;;
8544;SDS011;4310;51.054;6.994;2022-12-18T04:28:50;56.42;;;52.70;;
8544;SDS011;4310;51.054;6.994;2022-12-18T04:29:54;55.83;;;52.03;;
8544;SDS011;4310;51.054;6.994;2022-12-18T04:30:58;54.15;;;50.63;;
8544;SDS011;4310;51.054;6.994;2022-12-18T04:32:01;56.33;;;52.73;;
8544;SDS011;4310;51.054;6.994;2022-12-18T04:33:08;55.98;;;52.27;;
8544;SDS011;4310;51.054;6.994;2022-12-18T04:34:12;56.50;;;52.70;;
8544;SDS011;4310;51.054;6.994;2022-12-18T04:35:15;53.05;;;49.55;;
8544;SDS011;4310;51.054;6.994;2022-12-18T04:36:19;52.65;;;49.18;;
8544;SDS011;4310;51.054;6.994;2022-12-18T04:38:35;52.78;;;49.23;;
8544;SDS011;4310;51.054;6.994;2022-12-18T04:39:38;49.73;;;46.30;;
8544;SDS011;4310;51.054;6.994;2022-12-18T04:40:42;49.55;;;46.25;;
8544;SDS011;4310;51.054;6.994;2022-12-18T04:41:46;49.80;;;46.37;;
8544;SDS011;4310;51.054;6.994;2022-12-18T04:42:50;48.73;;;45.52;;
8544;SDS011;4310;51.054;6.994;2022-12-18T04:43:53;49.33;;;46.02;;
8544;SDS011;4310;51.054;6.994;2022-12-18T04:46:09;46.42;;;43.20;;
8544;SDS011;4310;51.054;6.994;2022-12-18T04:47:12;45.65;;;42.48;;
8544;SDS011;4310;51.054;6.994;2022-12-18T04:48:16;43.40;;;40.33;;
8544;SDS011;4310;51.054;6.994;2022-12-18T04:49:20;48.78;;;45.48;;
8544;SDS011;4310;51.054;6.994;2022-12-18T04:52:46;44.58;;;41.37;;
8544;SDS011;4310;51.054;6.994;2022-12-18T04:53:50;43.58;;;40.58;;
8544;SDS011;4310;51.054;6.994;2022-12-18T04:54:54;41.15;;;38.35;;
8544;SDS011;4310;51.054;6.994;2022-12-18T04:56:05;43.10;;;40.05;;
8544;SDS011;4310;51.054;6.994;2022-12-18T04:57:08;41.65;;;38.60;;
8544;SDS011;4310;51.054;6.994;2022-12-18T04:58:12;40.08;;;37.28;;
8544;SDS011;4310;51.054;6.994;2022-12-18T04:59:15;40.77;;;37.87;;
8544;SDS011;4310;51.054;6.994;2022-12-18T05:01:31;42.30;;;39.45;;
8544;SDS011;4310;51.054;6.994;2022-12-18T05:02:34;40.12;;;37.33;;
8544;SDS011;4310;51.054;6.994;2022-12-18T05:03:38;47.67;;;44.58;;
8544;SDS011;4310;51.054;6.994;2022-12-18T05:04:42;44.27;;;41.28;;
8544;SDS011;4310;51.054;6.994;2022-12-18T05:05:49;41.68;;;38.65;;
8544;SDS011;4310;51.054;6.994;2022-12-18T05:06:53;46.40;;;43.30;;
8544;SDS011;4310;51.054;6.994;2022-12-18T05:07:57;42.78;;;39.75;;
8544;SDS011;4310;51.054;6.994;2022-12-18T05:10:12;42.08;;;39.08;;
8544;SDS011;4310;51.054;6.994;2022-12-18T05:11:16;43.87;;;40.78;;
8544;SDS011;4310;51.054;6.994;2022-12-18T05:12:27;43.97;;;40.90;;
8544;SDS011;4310;51.054;6.994;2022-12-18T05:13:31;42.93;;;39.90;;
8544;SDS011;4310;51.054;6.994;2022-12-18T05:14:35;43.48;;;40.50;;
8544;SDS011;4310;51.054;6.994;2022-12-18T05:15:39;40.40;;;37.55;;
8544;SDS011;4310;51.054;6.994;2022-12-18T05:17:55;41.23;;;38.23;;
8544;SDS011;4310;51.054;6.994;2022-12-18T05:18:59;40.00;;;37.20;;
8544;SDS011;4310;51.054;6.994;2022-12-18T05:20:03;38.88;;;35.98;;
8544;SDS011;4310;51.054;6.994;2022-12-18T05:21:07;49.13;;;45.92;;
8544;SDS011;4310;51.054;6.994;2022-12-18T05:22:11;43.93;;;40.97;;
8544;SDS011;4310;51.054;6.994;2022-12-18T05:23:14;41.95;;;39.05;;
8544;SDS011;4310;51.054;6.994;2022-12-18T05:24:18;36.95;;;34.10;;
8544;SDS011;4310;51.054;6.994;2022-12-18T05:25:22;41.37;;;38.50;;
8544;SDS011;4310;51.054;6.994;2022-12-18T05:26:26;46.18;;;43.08;;
8544;SDS011;4310;51.054;6.994;2022-12-18T05:27:30;41.02;;;38.23;;
8544;SDS011;4310;51.054;6.994;2022-12-18T05:28:34;43.25;;;40.17;;
8544;SDS011;4310;51.054;6.994;2022-12-18T05:29:38;42.10;;;39.15;;
8544;SDS011;4310;51.054;6.994;2022-12-18T05:30:41;46.00;;;42.90;;
8544;SDS011;4310;51.054;6.994;2022-12-18T05:32:57;40.08;;;37.15;;
8544;SDS011;4310;51.054;6.994;2022-12-18T05:34:00;39.38;;;36.60;;
8544;SDS011;4310;51.054;6.994;2022-12-18T05:35:06;38.78;;;35.95;;
8544;SDS011;4310;51.054;6.994;2022-12-18T05:36:10;39.20;;;36.30;;
8544;SDS011;4310;51.054;6.994;2022-12-18T05:37:14;35.78;;;33.10;;
8544;SDS011;4310;51.054;6.994;2022-12-18T05:38:18;34.95;;;32.35;;
8544;SDS011;4310;51.054;6.994;2022-12-18T05:39:21;34.95;;;32.33;;
8544;SDS011;4310;51.054;6.994;2022-12-18T05:40:25;38.02;;;35.23;;
8544;SDS011;4310;51.054;6.994;2022-12-18T05:41:29;39.83;;;36.95;;
8544;SDS011;4310;51.054;6.994;2022-12-18T05:42:32;38.63;;;35.75;;
8544;SDS011;4310;51.054;6.994;2022-12-18T05:43:37;42.58;;;39.63;;
8544;SDS011;4310;51.054;6.994;2022-12-18T05:44:40;42.35;;;39.20;;
8544;SDS011;4310;51.054;6.994;2022-12-18T05:45:44;42.15;;;39.23;;
8544;SDS011;4310;51.054;6.994;2022-12-18T05:46:48;45.52;;;42.43;;
8544;SDS011;4310;51.054;6.994;2022-12-18T05:47:51;46.95;;;43.85;;
8544;SDS011;4310;51.054;6.994;2022-12-18T05:48:58;47.23;;;44.03;;
8544;SDS011;4310;51.054;6.994;2022-12-18T05:50:00;49.77;;;46.37;;
8544;SDS011;4310;51.054;6.994;2022-12-18T05:51:05;49.98;;;46.68;;
8544;SDS011;4310;51.054;6.994;2022-12-18T05:52:09;53.30;;;49.80;;
8544;SDS011;4310;51.054;6.994;2022-12-18T05:53:13;54.10;;;50.50;;
8544;SDS011;4310;51.054;6.994;2022-12-18T05:54:17;52.48;;;48.98;;
8544;SDS011;4310;51.054;6.994;2022-12-18T05:55:21;52.98;;;49.42;;
8544;SDS011;4310;51.054;6.994;2022-12-18T05:56:25;50.67;;;47.45;;
8544;SDS011;4310;51.054;6.994;2022-12-18T05:58:40;52.17;;;48.78;;
8544;SDS011;4310;51.054;6.994;2022-12-18T05:59:44;55.43;;;51.90;;
8544;SDS011;4310;51.054;6.994;2022-12-18T06:00:48;57.88;;;54.20;;
8544;SDS011;4310;51.054;6.994;2022-12-18T06:01:51;58.15;;;54.45;;
8544;SDS011;4310;51.054;6.994;2022-12-18T06:02:55;59.53;;;55.65;;
8544;SDS011;4310;51.054;6.994;2022-12-18T06:03:59;56.33;;;52.62;;
8544;SDS011;4310;51.054;6.994;2022-12-18T06:05:03;57.53;;;53.75;;
8544;SDS011;4310;51.054;6.994;2022-12-18T06:06:13;55.05;;;51.15;;
8544;SDS011;4310;51.054;6.994;2022-12-18T06:07:17;55.10;;;51.40;;
8544;SDS011;4310;51.054;6.994;2022-12-18T06:08:20;52.38;;;48.75;;
8544;SDS011;4310;51.054;6.994;2022-12-18T06:10:36;49.67;;;46.18;;
8544;SDS011;4310;51.054;6.994;2022-12-18T06:11:40;101.38;;;96.17;;
8544;SDS011;4310;51.054;6.994;2022-12-18T06:12:44;90.50;;;85.65;;
8544;SDS011;4310;51.054;6.994;2022-12-18T06:13:50;54.05;;;50.65;;
8544;SDS011;4310;51.054;6.994;2022-12-18T06:14:53;54.50;;;50.95;;
8544;SDS011;4310;51.054;6.994;2022-12-18T06:15:57;53.52;;;49.93;;
8544;SDS011;4310;51.054;6.994;2022-12-18T06:18:12;54.23;;;50.67;;
8544;SDS011;4310;51.054;6.994;2022-12-18T06:19:16;54.98;;;51.48;;
8544;SDS011;4310;51.054;6.994;2022-12-18T06:20:20;49.45;;;46.15;;
8544;SDS011;4310;51.054;6.994;2022-12-18T06:21:24;51.65;;;48.35;;
8544;SDS011;4310;51.054;6.994;2022-12-18T06:22:27;51.23;;;48.02;;
8544;SDS011;4310;51.054;6.994;2022-12-18T06:23:31;47.38;;;44.20;;
8544;SDS011;4310;51.054;6.994;2022-12-18T06:25:46;46.88;;;43.63;;
8544;SDS011;4310;51.054;6.994;2022-12-18T06:26:50;47.85;;;44.48;;
8544;SDS011;4310;51.054;6.994;2022-12-18T06:27:54;49.15;;;45.90;;
8544;SDS011;4310;51.054;6.994;2022-12-18T06:28:57;45.85;;;42.70;;
8544;SDS011;4310;51.054;6.994;2022-12-18T06:30:01;51.37;;;47.98;;
8544;SDS011;4310;51.054;6.994;2022-12-18T06:31:06;51.15;;;47.83;;
8544;SDS011;4310;51.054;6.994;2022-12-18T06:32:09;45.92;;;42.73;;
8544;SDS011;4310;51.054;6.994;2022-12-18T06:34:25;45.33;;;42.23;;
8544;SDS011;4310;51.054;6.994;2022-12-18T06:35:28;46.67;;;43.47;;
8544;SDS011;4310;51.054;6.994;2022-12-18T06:37:44;41.73;;;38.83;;
8544;SDS011;4310;51.054;6.994;2022-12-18T06:38:47;45.20;;;42.10;;
8544;SDS011;4310;51.054;6.994;2022-12-18T06:39:51;47.58;;;44.25;;
8544;SDS011;4310;51.054;6.994;2022-12-18T06:40:55;43.95;;;40.73;;
8544;SDS011;4310;51.054;6.994;2022-12-18T06:41:58;41.00;;;38.00;;
8544;SDS011;4310;51.054;6.994;2022-12-18T06:43:02;48.52;;;45.33;;
8544;SDS011;4310;51.054;6.994;2022-12-18T06:45:18;46.77;;;43.45;;
8544;SDS011;4310;51.054;6.994;2022-12-18T06:46:21;48.60;;;45.33;;
8544;SDS011;4310;51.054;6.994;2022-12-18T06:47:25;45.15;;;42.08;;
8544;SDS011;4310;51.054;6.994;2022-12-18T06:49:40;38.95;;;35.95;;
8544;SDS011;4310;51.054;6.994;2022-12-18T06:50:44;51.88;;;48.45;;
8544;SDS011;4310;51.054;6.994;2022-12-18T06:51:48;45.30;;;42.10;;
8544;SDS011;4310;51.054;6.994;2022-12-18T06:52:51;43.65;;;40.60;;
8544;SDS011;4310;51.054;6.994;2022-12-18T06:55:07;41.90;;;38.80;;
8544;SDS011;4310;51.054;6.994;2022-12-18T06:56:11;40.75;;;37.80;;
8544;SDS011;4310;51.054;6.994;2022-12-18T06:57:14;44.33;;;41.33;;
8544;SDS011;4310;51.054;6.994;2022-12-18T06:58:18;42.53;;;39.58;;
8544;SDS011;4310;51.054;6.994;2022-12-18T06:59:22;44.23;;;41.05;;
8544;SDS011;4310;51.054;6.994;2022-12-18T07:01:37;45.00;;;41.90;;
8544;SDS011;4310;51.054;6.994;2022-12-18T07:02:41;48.80;;;45.48;;
8544;SDS011;4310;51.054;6.994;2022-12-18T07:03:45;54.18;;;50.48;;
8544;SDS011;4310;51.054;6.994;2022-12-18T07:04:50;53.20;;;49.70;;
8544;SDS011;4310;51.054;6.994;2022-12-18T07:05:54;44.38;;;41.18;;
8544;SDS011;4310;51.054;6.994;2022-12-18T07:06:57;49.55;;;46.23;;
8544;SDS011;4310;51.054;6.994;2022-12-18T07:08:01;44.48;;;41.28;;
8544;SDS011;4310;51.054;6.994;2022-12-18T07:09:05;47.00;;;43.75;;
8544;SDS011;4310;51.054;6.994;2022-12-18T07:10:09;38.65;;;35.55;;
8544;SDS011;4310;51.054;6.994;2022-12-18T07:11:13;47.55;;;44.15;;
8544;SDS011;4310;51.054;6.994;2022-12-18T07:12:16;39.00;;;36.13;;
8544;SDS011;4310;51.054;6.994;2022-12-18T07:13:20;39.50;;;36.50;;
8544;SDS011;4310;51.054;6.994;2022-12-18T07:14:24;39.50;;;36.53;;
8544;SDS011;4310;51.054;6.994;2022-12-18T07:15:28;41.88;;;38.88;;
8544;SDS011;4310;51.054;6.994;2022-12-18T07:16:31;38.30;;;35.30;;
8544;SDS011;4310;51.054;6.994;2022-12-18T07:17:35;37.15;;;34.05;;
8544;SDS011;4310;51.054;6.994;2022-12-18T07:18:39;36.45;;;33.58;;
8544;SDS011;4310;51.054;6.994;2022-12-18T07:19:42;39.85;;;36.80;;